Time;durP1;ratioP1;P1;durP2;ratioP2;P2;SDS_P1;SDS_P2;PMS_P1;PMS_P2;Temp;Humidity;BMP_temperature;BMP_pressure;BME280_temperature;BME280_humidity;BME280_pressure;Samples;Min_cycle;Max_cycle;Signal;HPM_P1;HPM_P2
2023/01/14 00:02:13;;;;;;;;;;;;;;;20.35;51.98;100580.00;5015954;28;6251;-72
2023/01/14 00:04:52;;;;;;;;;;;;;;;20.35;51.72;100580.75;5011886;28;4366;-69
2023/01/14 00:07:18;;;;;;;;;;;;;;;20.33;51.89;100583.53;5018407;28;4171;-72
2023/01/14 00:09:44;;;;;;;;;;;;;;;20.33;51.79;100583.53;5010060;28;5238;-72
2023/01/14 00:12:11;;;;;;;;;;;;;;;20.33;51.70;100588.56;5011322;28;4173;-71
2023/01/14 00:14:37;;;;;;;;;;;;;;;20.32;51.77;100592.81;5008626;28;3984;-72
2023/01/14 00:17:04;;;;;;;;;;;;;;;20.30;51.94;100596.34;5005137;28;3973;-72
2023/01/14 00:19:30;;;;;;;;;;;;;;;20.29;51.98;100594.84;5016663;28;4392;-69
2023/01/14 00:21:56;;;;;;;;;;;;;;;20.29;51.82;100589.09;5014575;28;4217;-71
2023/01/14 00:24:23;;;;;;;;;;;;;;;20.29;52.16;100600.59;5004153;28;4104;-71
2023/01/14 00:26:50;;;;;;;;;;;;;;;20.28;52.06;100593.38;5011830;28;4500;-71
2023/01/14 00:29:17;;;;;;;;;;;;;;;20.27;51.99;100597.66;5016136;28;4247;-71
2023/01/14 00:31:43;;;;;;;;;;;;;;;20.26;52.00;100601.94;5010172;28;4185;-70
2023/01/14 00:34:11;;;;;;;;;;;;;;;20.25;51.66;100600.47;5016173;28;5142;-71
2023/01/14 00:36:37;;;;;;;;;;;;;;;20.24;51.78;100602.56;5015553;28;5444;-70
2023/01/14 00:39:03;;;;;;;;;;;;;;;20.23;52.03;100601.09;5027826;28;4304;-71
2023/01/14 00:41:30;;;;;;;;;;;;;;;20.23;51.74;100603.25;5015903;28;4141;-71
2023/01/14 00:43:57;;;;;;;;;;;;;;;20.22;51.89;100607.50;5013580;28;4040;-71
2023/01/14 00:46:27;;;;;;;;;;;;;;;20.22;51.97;100611.09;5013018;28;3995;-71
2023/01/14 00:48:55;;;;;;;;;;;;;;;20.21;51.97;100615.38;5012367;28;4196;-71
2023/01/14 00:51:21;;;;;;;;;;;;;;;20.22;51.85;100627.63;5014501;28;4173;-70
2023/01/14 00:53:47;;;;;;;;;;;;;;;20.22;51.66;100627.63;5011415;28;5155;-71
2023/01/14 00:56:15;;;;;;;;;;;;;;;20.20;52.02;100639.03;5013668;28;4930;-70
2023/01/14 00:58:41;;;;;;;;;;;;;;;20.20;51.72;100627.53;5016002;28;4129;-71
2023/01/14 01:01:07;;;;;;;;;;;;;;;20.19;51.68;100632.53;5017980;28;4069;-71
2023/01/14 01:03:36;;;;;;;;;;;;;;;20.19;52.18;100643.31;5017113;28;4101;-71
2023/01/14 01:06:03;;;;;;;;;;;;;;;20.18;51.93;100636.06;5012072;28;5348;-70
2023/01/14 01:08:29;;;;;;;;;;;;;;;20.19;51.93;100649.06;5016642;28;4092;-71
2023/01/14 01:10:56;;;;;;;;;;;;;;;20.17;51.96;100646.09;5016612;28;4204;-70
2023/01/14 01:13:23;;;;;;;;;;;;;;;20.16;52.03;100644.59;5018835;28;3972;-70
2023/01/14 01:15:50;;;;;;;;;;;;;;;20.14;52.05;100642.41;5016933;28;5212;-71
2023/01/14 01:18:16;;;;;;;;;;;;;;;20.15;51.89;100651.75;5021519;28;5275;-71
2023/01/14 01:20:43;;;;;;;;;;;;;;;20.14;51.98;100647.41;5014903;28;4354;-70
2023/01/14 01:23:12;;;;;;;;;;;;;;;20.14;51.84;100653.91;5015961;28;4137;-70
2023/01/14 01:25:38;;;;;;;;;;;;;;;20.14;51.85;100664.66;5018637;28;4122;-70
2023/01/14 01:28:05;;;;;;;;;;;;;;;20.13;52.13;100663.91;5001613;28;4288;-70
2023/01/14 01:30:31;;;;;;;;;;;;;;;20.12;52.06;100664.56;5015096;28;4145;-70
2023/01/14 01:32:58;;;;;;;;;;;;;;;20.12;52.04;100667.44;5016658;28;4082;-71
2023/01/14 01:35:24;;;;;;;;;;;;;;;20.11;52.02;100672.44;5017789;28;4004;-71
2023/01/14 01:37:50;;;;;;;;;;;;;;;20.10;51.76;100670.94;5017148;28;4151;-71
2023/01/14 01:40:17;;;;;;;;;;;;;;;20.12;52.10;100673.19;5015344;28;4064;-71
2023/01/14 01:42:55;;;;;;;;;;;;;;;20.12;52.03;100681.81;5015726;28;4202;-70
2023/01/14 01:45:25;;;;;;;;;;;;;;;20.11;51.94;100677.44;5015265;28;5217;-70
2023/01/14 01:47:53;;;;;;;;;;;;;;;20.09;51.92;100675.22;5017989;28;4298;-70
2023/01/14 01:50:19;;;;;;;;;;;;;;;20.09;51.88;100683.84;5006770;28;4144;-70
2023/01/14 01:52:46;;;;;;;;;;;;;;;20.08;51.96;100680.22;5021954;28;4027;-70
2023/01/14 01:55:12;;;;;;;;;;;;;;;20.08;51.92;100677.34;5020563;28;5224;-70
2023/01/14 01:57:39;;;;;;;;;;;;;;;20.09;51.77;100683.84;5008478;28;5493;-71
2023/01/14 02:00:07;;;;;;;;;;;;;;;20.08;51.75;100685.97;5013781;28;4116;-70
2023/01/14 02:02:43;;;;;;;;;;;;;;;20.07;51.71;100686.63;5021019;28;5733;-71
2023/01/14 02:05:09;;;;;;;;;;;;;;;20.06;51.93;100691.63;5021738;28;3991;-70
2023/01/14 02:07:35;;;;;;;;;;;;;;;20.06;51.86;100703.13;5020947;28;4409;-71
2023/01/14 02:10:03;;;;;;;;;;;;;;;20.06;51.87;100711.75;5019080;28;4104;-69
2023/01/14 02:12:36;;;;;;;;;;;;;;;20.05;52.05;100701.66;5018612;28;5277;-70
2023/01/14 02:15:10;;;;;;;;;;;;;;;20.05;51.84;100710.28;5019032;28;4169;-70
2023/01/14 02:17:56;;;;;;;;;;;;;;;20.04;52.04;100714.56;5006085;28;4249;-70
2023/01/14 02:20:43;;;;;;;;;;;;;;;20.04;51.88;100720.31;4999534;28;5239;-70
2023/01/14 02:23:13;;;;;;;;;;;;;;;20.03;51.97;100715.19;5031304;28;4051;-70
2023/01/14 02:25:59;;;;;;;;;;;;;;;20.02;52.21;100717.34;5018897;28;4083;-70
2023/01/14 02:28:45;;;;;;;;;;;;;;;20.01;51.85;100721.59;4994762;28;4194;-70
2023/01/14 02:31:12;;;;;;;;;;;;;;;20.01;52.11;100720.84;5010346;28;4019;-71
2023/01/14 02:33:43;;;;;;;;;;;;;;;20.00;51.97;100725.88;5008137;28;4215;-70
2023/01/14 02:36:15;;;;;;;;;;;;;;;20.01;51.70;100726.59;5035575;28;4163;-71
2023/01/14 02:39:01;;;;;;;;;;;;;;;20.01;51.69;100729.47;5003617;28;4219;-71
2023/01/14 02:44:23;;;;;;;;;;;;;;;19.99;51.79;100732.25;5016234;28;4227;-70
2023/01/14 02:47:00;;;;;;;;;;;;;;;19.98;51.96;100734.38;5002111;28;4135;-71
2023/01/14 02:49:30;;;;;;;;;;;;;;;19.98;51.65;100739.41;5017369;28;5192;-71
2023/01/14 02:51:57;;;;;;;;;;;;;;;19.97;51.75;100740.78;5003965;28;4003;-71
2023/01/14 02:54:25;;;;;;;;;;;;;;;19.95;51.70;100735.69;5023620;28;4010;-70
2023/01/14 02:56:52;;;;;;;;;;;;;;;19.97;51.70;100732.16;5029580;28;4156;-70
2023/01/14 02:59:37;;;;;;;;;;;;;;;19.96;51.70;100742.91;5014819;28;4047;-71
2023/01/14 03:02:12;;;;;;;;;;;;;;;19.95;51.67;100747.19;5017187;28;4082;-71
2023/01/14 03:04:48;;;;;;;;;;;;;;;19.96;51.58;100751.53;5010217;28;5250;-71
2023/01/14 03:07:20;;;;;;;;;;;;;;;19.96;51.87;100745.06;5002932;28;4139;-71
2023/01/14 03:10:03;;;;;;;;;;;;;;;19.95;51.85;100752.19;5014717;28;4101;-71
2023/01/14 03:12:34;;;;;;;;;;;;;;;19.93;51.70;100761.47;5027692;28;4082;-70
2023/01/14 03:15:19;;;;;;;;;;;;;;;19.94;51.75;100762.94;5019136;28;4126;-71
2023/01/14 03:17:46;;;;;;;;;;;;;;;19.94;51.81;100777.31;5018523;28;4054;-71
2023/01/14 03:20:16;;;;;;;;;;;;;;;19.93;51.80;100772.19;5016396;28;5386;-71
2023/01/14 03:22:43;;;;;;;;;;;;;;;19.92;51.70;100771.47;5018511;28;3977;-71
2023/01/14 03:25:09;;;;;;;;;;;;;;;19.93;51.85;100775.06;5022634;28;4202;-71
2023/01/14 03:27:37;;;;;;;;;;;;;;;19.92;51.56;100773.59;4999516;28;4127;-72
2023/01/14 03:30:05;;;;;;;;;;;;;;;19.91;51.70;100775.72;5010229;28;4259;-71
2023/01/14 03:32:44;;;;;;;;;;;;;;;19.91;51.64;100772.84;5014854;28;4094;-71
2023/01/14 03:35:15;;;;;;;;;;;;;;;19.91;51.63;100781.47;4999851;28;4274;-72
2023/01/14 03:37:44;;;;;;;;;;;;;;;19.90;51.78;100785.72;5001109;28;3978;-71
2023/01/14 03:40:11;;;;;;;;;;;;;;;19.89;51.96;100784.25;5016009;28;5188;-71
2023/01/14 03:42:47;;;;;;;;;;;;;;;19.89;51.40;100787.13;5017299;28;4198;-71
2023/01/14 03:45:14;;;;;;;;;;;;;;;19.91;51.62;100795.13;5017147;28;4036;-71
2023/01/14 03:47:40;;;;;;;;;;;;;;;19.90;51.63;100790.75;5010781;28;4202;-71
2023/01/14 03:50:07;;;;;;;;;;;;;;;19.92;51.69;100793.72;5015372;28;4156;-70
2023/01/14 03:52:34;;;;;;;;;;;;;;;19.92;51.50;100800.19;5013902;28;4131;-70
2023/01/14 03:55:01;;;;;;;;;;;;;;;19.94;51.52;100785.94;5015120;28;4047;-70
2023/01/14 03:57:58;;;;;;;;;;;;;;;19.96;51.86;100799.66;5014046;28;4155;-70
2023/01/14 04:00:31;;;;;;;;;;;;;;;19.99;51.83;100790.47;5019666;28;4125;-71
2023/01/14 04:02:58;;;;;;;;;;;;;;;19.99;51.82;100793.34;5011603;28;4043;-71
2023/01/14 04:05:24;;;;;;;;;;;;;;;20.02;52.08;100797.81;5014899;28;4106;-71
2023/01/14 04:07:51;;;;;;;;;;;;;;;20.01;52.21;100790.56;5012811;28;4372;-70
2023/01/14 04:10:17;;;;;;;;;;;;;;;20.02;52.11;100791.31;5016501;28;4193;-71
2023/01/14 04:15:29;;;;;;;;;;;;;;;20.02;52.27;100800.69;5012950;28;4258;-71
2023/01/14 04:17:55;;;;;;;;;;;;;;;20.01;52.17;100799.19;5020171;28;4162;-70
2023/01/14 04:20:21;;;;;;;;;;;;;;;20.03;52.41;100810.03;5013028;28;4148;-71
2023/01/14 04:22:48;;;;;;;;;;;;;;;20.04;52.38;100806.53;5016812;28;4325;-70
2023/01/14 04:25:14;;;;;;;;;;;;;;;20.05;52.26;100808.00;5015101;28;3940;-70
2023/01/14 04:27:40;;;;;;;;;;;;;;;20.07;52.00;100810.25;5019494;28;4188;-71
2023/01/14 04:30:07;;;;;;;;;;;;;;;20.09;52.39;100813.22;5013371;28;4102;-71
2023/01/14 04:32:33;;;;;;;;;;;;;;;20.08;52.29;100806.69;5014611;28;5589;-70
2023/01/14 04:35:00;;;;;;;;;;;;;;;20.09;52.35;100813.22;5020249;28;5318;-71
2023/01/14 04:37:26;;;;;;;;;;;;;;;20.09;52.37;100819.69;5013390;28;4534;-71
2023/01/14 04:39:55;;;;;;;;;;;;;;;20.09;52.43;100824.72;5013045;28;5305;-70
2023/01/14 04:42:27;;;;;;;;;;;;;;;20.10;52.38;100820.44;5007376;28;4048;-71
2023/01/14 04:45:01;;;;;;;;;;;;;;;20.09;52.36;100813.94;5019535;28;4169;-72
2023/01/14 04:47:27;;;;;;;;;;;;;;;20.09;52.41;100819.69;5020794;28;4777;-71
2023/01/14 04:49:54;;;;;;;;;;;;;;;20.09;52.45;100831.19;5005018;28;4206;-70
2023/01/14 04:52:20;;;;;;;;;;;;;;;20.08;52.61;100826.81;5017244;28;4184;-71
2023/01/14 04:54:46;;;;;;;;;;;;;;;20.09;52.43;100836.94;5015299;28;4230;-70
2023/01/14 04:57:13;;;;;;;;;;;;;;;20.10;52.48;100843.44;5014211;28;4175;-70
2023/01/14 04:59:39;;;;;;;;;;;;;;;20.12;52.47;100842.78;5007035;28;4107;-70
2023/01/14 05:02:05;;;;;;;;;;;;;;;20.10;52.35;100840.56;5017888;28;4000;-70
2023/01/14 05:04:32;;;;;;;;;;;;;;;20.12;52.44;100840.66;5016921;28;4162;-70
2023/01/14 05:07:01;;;;;;;;;;;;;;;20.12;52.38;100852.16;5018487;28;4161;-70
2023/01/14 05:09:27;;;;;;;;;;;;;;;20.14;52.59;100848.66;5013125;28;4036;-70
2023/01/14 05:11:53;;;;;;;;;;;;;;;20.14;52.25;100854.41;5018790;28;4134;-71
2023/01/14 05:14:20;;;;;;;;;;;;;;;20.14;52.52;100860.16;5016428;28;5452;-70
2023/01/14 05:16:46;;;;;;;;;;;;;;;20.13;52.47;100861.53;5018005;28;4042;-70
2023/01/14 05:19:12;;;;;;;;;;;;;;;20.11;52.37;100856.41;5017087;28;5429;-70
2023/01/14 05:21:39;;;;;;;;;;;;;;;20.12;52.71;100868.66;5014971;28;4132;-70
2023/01/14 05:24:05;;;;;;;;;;;;;;;20.12;52.41;100852.16;5016779;28;4158;-70
2023/01/14 05:26:32;;;;;;;;;;;;;;;20.11;52.43;100870.78;5013955;28;3993;-71
2023/01/14 05:28:58;;;;;;;;;;;;;;;20.12;52.55;100868.66;5009895;28;4019;-70
2023/01/14 05:31:24;;;;;;;;;;;;;;;20.13;52.58;100870.16;5016375;28;4113;-71
2023/01/14 05:33:51;;;;;;;;;;;;;;;20.14;52.59;100877.41;5017892;28;4287;-71
2023/01/14 05:36:17;;;;;;;;;;;;;;;20.14;52.62;100865.91;5016660;28;4427;-71
2023/01/14 05:38:44;;;;;;;;;;;;;;;20.15;52.38;100861.63;5010159;28;4138;-71
2023/01/14 05:41:11;;;;;;;;;;;;;;;20.16;52.42;100860.22;5013549;28;3975;-71
2023/01/14 05:46:23;;;;;;;;;;;;;;;20.16;52.57;100863.84;5017501;28;4143;-71
2023/01/14 05:48:49;;;;;;;;;;;;;;;20.16;52.52;100874.59;5014037;28;4318;-71
2023/01/14 05:51:15;;;;;;;;;;;;;;;20.15;52.46;100878.88;5010498;28;4299;-72
2023/01/14 05:53:42;;;;;;;;;;;;;;;20.14;52.45;100875.25;5012140;28;4085;-71
2023/01/14 05:56:08;;;;;;;;;;;;;;;20.14;52.61;100877.41;5019662;28;4087;-71
2023/01/14 05:58:35;;;;;;;;;;;;;;;20.15;52.57;100873.13;5011108;28;4188;-71
2023/01/14 06:06:34;;;;;;;;;;;;;;;20.16;52.50;100886.09;5007134;28;5402;-71
2023/01/14 06:09:05;;;;;;;;;;;;;;;20.16;52.41;100881.09;5008993;28;4233;-70
2023/01/14 06:11:34;;;;;;;;;;;;;;;20.17;52.60;100885.44;5017218;28;4143;-70
2023/01/14 06:14:01;;;;;;;;;;;;;;;20.19;52.57;100896.31;5005000;28;4215;-71
2023/01/14 06:16:28;;;;;;;;;;;;;;;20.19;52.34;100896.31;5011594;28;3922;-71
2023/01/14 06:18:55;;;;;;;;;;;;;;;20.19;52.43;100897.06;5017635;28;4360;-71
2023/01/14 06:21:22;;;;;;;;;;;;;;;20.18;52.51;100907.06;5015799;28;4111;-71
2023/01/14 06:23:48;;;;;;;;;;;;;;;20.18;52.35;100909.19;5009874;28;4182;-70
2023/01/14 06:26:16;;;;;;;;;;;;;;;20.19;52.40;100902.06;5012741;28;4194;-71
2023/01/14 06:28:43;;;;;;;;;;;;;;;20.18;52.54;100900.56;5019733;28;4114;-71
2023/01/14 06:31:13;;;;;;;;;;;;;;;20.17;52.38;100910.59;5021034;28;4117;-71
2023/01/14 06:33:39;;;;;;;;;;;;;;;20.18;52.42;100901.31;5006640;28;4163;-71
2023/01/14 06:36:06;;;;;;;;;;;;;;;20.18;52.44;100901.31;5017991;28;4176;-71
2023/01/14 06:38:32;;;;;;;;;;;;;;;20.17;52.47;100894.06;5015989;28;4409;-71
2023/01/14 06:40:59;;;;;;;;;;;;;;;20.19;52.62;100890.56;5019023;28;4108;-70
2023/01/14 06:43:26;;;;;;;;;;;;;;;20.18;52.72;100906.31;5017971;28;4119;-71
2023/01/14 06:45:55;;;;;;;;;;;;;;;20.18;52.62;100901.31;5023046;28;4039;-70
2023/01/14 06:48:22;;;;;;;;;;;;;;;20.19;52.43;100899.19;5016981;28;5216;-70
2023/01/14 06:50:48;;;;;;;;;;;;;;;20.21;52.64;100900.03;5015584;28;4108;-71
2023/01/14 06:53:14;;;;;;;;;;;;;;;20.21;52.58;100899.28;5016566;28;5250;-71
2023/01/14 06:55:41;;;;;;;;;;;;;;;20.20;52.48;100900.66;5020183;28;4186;-70
2023/01/14 06:58:07;;;;;;;;;;;;;;;20.21;52.63;100902.16;5019677;28;4145;-70
2023/01/14 07:00:33;;;;;;;;;;;;;;;20.20;52.63;100915.81;5010502;28;4133;-72
2023/01/14 07:03:00;;;;;;;;;;;;;;;20.17;52.66;100899.09;5020627;28;4070;-70
2023/01/14 07:05:26;;;;;;;;;;;;;;;20.20;52.66;100906.41;5019749;28;4022;-70
2023/01/14 07:07:53;;;;;;;;;;;;;;;20.21;52.47;100905.03;5016639;28;4045;-70
2023/01/14 07:10:19;;;;;;;;;;;;;;;20.21;52.52;100910.78;5010680;28;4284;-70
2023/01/14 07:12:46;;;;;;;;;;;;;;;20.23;52.54;100913.75;5019180;28;4165;-70
2023/01/14 07:15:13;;;;;;;;;;;;;;;20.22;52.71;100918.00;5013021;28;4306;-71
2023/01/14 07:17:39;;;;;;;;;;;;;;;20.23;52.72;100910.88;5021164;28;3980;-71
2023/01/14 07:20:06;;;;;;;;;;;;;;;20.25;52.54;100916.75;5020651;28;5672;-71
2023/01/14 07:22:32;;;;;;;;;;;;;;;20.23;52.50;100902.25;5017417;28;5240;-71
2023/01/14 07:25:01;;;;;;;;;;;;;;;20.24;52.50;100906.63;5011908;28;5495;-71
2023/01/14 07:27:28;;;;;;;;;;;;;;;20.24;52.66;100903.75;5016826;28;4241;-71
2023/01/14 07:29:54;;;;;;;;;;;;;;;20.24;52.83;100903.75;5020386;28;4170;-70
2023/01/14 07:32:21;;;;;;;;;;;;;;;20.23;52.83;100894.38;5010460;28;4350;-70
2023/01/14 07:34:47;;;;;;;;;;;;;;;20.22;52.68;100898.63;5012606;28;4245;-71
2023/01/14 07:37:13;;;;;;;;;;;;;;;20.22;52.84;100889.25;5010978;28;4148;-70
2023/01/14 07:39:40;;;;;;;;;;;;;;;20.24;52.64;100892.25;5019122;28;4136;-70
2023/01/14 07:42:06;;;;;;;;;;;;;;;20.23;52.54;100891.50;5020801;28;4141;-70
2023/01/14 07:44:35;;;;;;;;;;;;;;;20.25;52.69;100900.22;5014042;28;4060;-71
2023/01/14 07:47:01;;;;;;;;;;;;;;;20.25;52.70;100893.75;5015938;28;4134;-70
2023/01/14 07:49:27;;;;;;;;;;;;;;;20.27;52.47;100890.94;5013118;28;5273;-70
2023/01/14 07:51:54;;;;;;;;;;;;;;;20.26;52.62;100890.19;5020352;28;4007;-70
2023/01/14 07:54:20;;;;;;;;;;;;;;;20.26;52.58;100889.47;5017572;28;5602;-70
2023/01/14 07:56:46;;;;;;;;;;;;;;;20.26;52.63;100883.72;5017080;28;4024;-72
2023/01/14 07:59:13;;;;;;;;;;;;;;;20.26;52.71;100895.22;5013031;28;4237;-71
2023/01/14 08:01:39;;;;;;;;;;;;;;;20.25;52.67;100899.50;5018294;28;4120;-71
2023/01/14 08:04:07;;;;;;;;;;;;;;;20.26;52.73;100898.09;5018010;28;4179;-71
2023/01/14 08:06:34;;;;;;;;;;;;;;;20.25;52.73;100890.88;5014369;28;5188;-71
2023/01/14 08:09:02;;;;;;;;;;;;;;;20.25;52.96;100899.50;5017355;28;4135;-70
2023/01/14 08:11:28;;;;;;;;;;;;;;;20.24;52.67;100895.84;5014955;28;4098;-70
2023/01/14 08:13:55;;;;;;;;;;;;;;;20.27;52.62;100899.56;5018400;28;4275;-71
2023/01/14 08:16:21;;;;;;;;;;;;;;;20.28;52.70;100904.69;5016712;28;4125;-70
2023/01/14 08:18:48;;;;;;;;;;;;;;;20.27;52.53;100894.56;5013198;28;4248;-71
2023/01/14 08:21:14;;;;;;;;;;;;;;;20.28;52.74;100892.44;5013196;28;4043;-71
2023/01/14 08:23:41;;;;;;;;;;;;;;;20.26;52.71;100892.34;5006710;28;4263;-78
2023/01/14 08:26:07;;;;;;;;;;;;;;;20.35;52.66;100887.72;5014229;28;4137;-74
2023/01/14 08:28:34;;;;;;;;;;;;;;;20.33;52.86;100882.59;5018813;28;4176;-73
2023/01/14 08:31:04;;;;;;;;;;;;;;;20.34;52.70;100878.34;5016143;28;5301;-76
2023/01/14 08:33:30;;;;;;;;;;;;;;;20.34;52.71;100889.84;5018092;28;4145;-75
2023/01/14 08:35:59;;;;;;;;;;;;;;;20.34;52.63;100878.34;5013132;28;5304;-75
2023/01/14 08:38:26;;;;;;;;;;;;;;;20.35;52.56;100885.56;4998691;28;5464;-73
2023/01/14 08:40:54;;;;;;;;;;;;;;;20.29;52.75;100879.53;4977804;28;4211;-66
2023/01/14 08:43:21;;;;;;;;;;;;;;;20.36;52.35;100892.81;4993669;28;4182;-70
2023/01/14 08:45:49;;;;;;;;;;;;;;;20.28;50.40;100881.66;4993199;28;4171;-66
2023/01/14 08:48:16;;;;;;;;;;;;;;;20.24;48.67;100892.97;4992652;28;4884;-66
2023/01/14 08:50:43;;;;;;;;;;;;;;;20.18;47.85;100889.81;4993768;28;4191;-68
2023/01/14 08:53:11;;;;;;;;;;;;;;;20.13;46.61;100893.88;5001106;28;4026;-67
2023/01/14 08:55:38;;;;;;;;;;;;;;;20.09;46.53;100891.56;4991516;28;4240;-67
2023/01/14 08:58:05;;;;;;;;;;;;;;;20.05;47.62;100888.50;4991144;28;4155;-70
2023/01/14 09:00:31;;;;;;;;;;;;;;;20.00;46.05;100886.09;4978437;28;4286;-71
2023/01/14 09:02:58;;;;;;;;;;;;;;;19.87;45.55;100891.22;4994000;28;5648;-70
2023/01/14 09:05:24;;;;;;;;;;;;;;;19.90;45.10;100889.19;5000010;28;4012;-70
2023/01/14 09:18:57;;;;;;;;;;;;;;;19.89;43.50;100904.94;4993607;28;4275;-68
2023/01/14 09:21:24;;;;;;;;;;;;;;;19.86;44.43;100894.75;4994422;28;4009;-73
2023/01/14 09:23:50;;;;;;;;;;;;;;;19.92;44.96;100897.91;4986682;28;4203;-68
2023/01/14 09:26:19;;;;;;;;;;;;;;;19.99;44.74;100901.81;4977096;28;5513;-68
2023/01/14 09:28:45;;;;;;;;;;;;;;;20.05;44.99;100882.75;4997487;28;4313;-68
2023/01/14 09:31:12;;;;;;;;;;;;;;;20.10;45.67;100889.44;4997422;28;5222;-67
2023/01/14 09:33:38;;;;;;;;;;;;;;;20.13;45.70;100891.00;4987046;28;4071;-72
2023/01/14 09:36:05;;;;;;;;;;;;;;;20.13;46.21;100888.13;4982309;28;5227;-71
2023/01/14 09:38:31;;;;;;;;;;;;;;;20.15;46.42;100884.63;5011996;28;4143;-72
2023/01/14 09:40:57;;;;;;;;;;;;;;;20.16;46.73;100878.22;5016254;28;4625;-71
2023/01/14 09:43:36;;;;;;;;;;;;;;;20.18;46.94;100871.81;5013032;28;5227;-72
2023/01/14 09:46:02;;;;;;;;;;;;;;;20.19;47.22;100867.56;5013038;28;4234;-72
2023/01/14 09:48:29;;;;;;;;;;;;;;;20.20;47.39;100874.78;5007874;28;4265;-70
2023/01/14 09:51:13;;;;;;;;;;;;;;;20.20;47.65;100866.94;5009280;28;4562;-71
2023/01/14 09:53:48;;;;;;;;;;;;;;;20.21;47.70;100865.53;5009034;28;4245;-71
2023/01/14 09:56:19;;;;;;;;;;;;;;;20.20;47.86;100849.69;5004628;28;5540;-70
2023/01/14 09:58:57;;;;;;;;;;;;;;;20.21;48.12;100850.41;5008720;28;5484;-70
2023/01/14 10:01:28;;;;;;;;;;;;;;;20.21;48.34;100841.78;5003208;28;5202;-72
2023/01/14 10:03:59;;;;;;;;;;;;;;;20.20;48.41;100829.56;5014865;28;4389;-71
2023/01/14 10:06:25;;;;;;;;;;;;;;;20.20;48.42;100823.03;4998714;28;4521;-72
2023/01/14 10:08:53;;;;;;;;;;;;;;;20.20;48.73;100818.06;5010584;28;4110;-70
2023/01/14 10:11:19;;;;;;;;;;;;;;;20.20;48.84;100805.78;5009485;28;4166;-70
2023/01/14 10:13:57;;;;;;;;;;;;;;;20.20;48.75;100800.03;5016602;28;4074;-71
2023/01/14 10:16:27;;;;;;;;;;;;;;;20.22;48.93;100809.50;5019540;28;4180;-70
2023/01/14 10:19:14;;;;;;;;;;;;;;;20.22;48.85;100803.75;5005767;28;5439;-70
2023/01/14 10:21:48;;;;;;;;;;;;;;;20.23;49.15;100807.38;4996065;28;4157;-70
2023/01/14 10:24:14;;;;;;;;;;;;;;;20.23;49.17;100816.00;5011781;28;4155;-70
2023/01/14 10:26:42;;;;;;;;;;;;;;;20.25;49.13;100802.47;5013551;28;4190;-70
2023/01/14 10:29:11;;;;;;;;;;;;;;;20.26;49.25;100783.06;4999172;28;4091;-72
2023/01/14 10:31:37;;;;;;;;;;;;;;;20.29;49.17;100791.16;5000395;28;4169;-70
2023/01/14 10:34:04;;;;;;;;;;;;;;;20.30;49.25;100786.13;5016584;28;3974;-69
2023/01/14 10:36:30;;;;;;;;;;;;;;;20.30;49.26;100791.88;4992017;28;4040;-69
2023/01/14 10:38:57;;;;;;;;;;;;;;;20.30;49.38;100789.75;5021011;28;4322;-70
2023/01/14 10:44:16;;;;;;;;;;;;;;;20.32;49.34;100776.84;5012822;28;4180;-68
2023/01/14 10:46:45;;;;;;;;;;;;;;;20.31;49.66;100770.34;4991525;28;4858;-69
2023/01/14 10:49:14;;;;;;;;;;;;;;;20.30;49.71;100775.38;5002402;28;4092;-71
2023/01/14 10:51:47;;;;;;;;;;;;;;;20.31;49.54;100764.59;5015280;28;3993;-68
2023/01/14 10:54:15;;;;;;;;;;;;;;;20.32;49.55;100759.59;5012493;28;5208;-68
2023/01/14 10:56:49;;;;;;;;;;;;;;;20.31;49.58;100753.09;5016824;28;4142;-69
2023/01/14 10:59:18;;;;;;;;;;;;;;;20.32;49.78;100756.72;5015277;28;4163;-70
2023/01/14 11:01:45;;;;;;;;;;;;;;;20.30;49.72;100740.13;5010215;28;4218;-71
2023/01/14 11:04:12;;;;;;;;;;;;;;;20.32;49.78;100748.84;5002694;28;3991;-71
2023/01/14 11:06:38;;;;;;;;;;;;;;;20.32;49.74;100734.47;4998759;28;3934;-70
2023/01/14 11:09:04;;;;;;;;;;;;;;;20.33;49.81;100726.56;5010228;28;4048;-71
2023/01/14 11:11:37;;;;;;;;;;;;;;;20.33;49.70;100721.56;5003966;28;4127;-70
2023/01/14 11:14:17;;;;;;;;;;;;;;;20.33;49.77;100715.81;4992378;28;4048;-71
2023/01/14 11:16:43;;;;;;;;;;;;;;;20.33;49.94;100712.94;5022997;28;4192;-72
2023/01/14 11:19:16;;;;;;;;;;;;;;;20.34;49.92;100717.31;5023149;28;5463;-72
2023/01/14 11:21:42;;;;;;;;;;;;;;;20.36;49.86;100708.00;5010844;28;4073;-70
2023/01/14 11:24:12;;;;;;;;;;;;;;;20.35;49.99;100701.53;5018993;28;4113;-70
2023/01/14 11:26:38;;;;;;;;;;;;;;;20.34;50.00;100693.53;5015670;28;4028;-72
2023/01/14 11:29:16;;;;;;;;;;;;;;;20.34;50.04;100694.31;5013392;28;4022;-69
2023/01/14 11:31:42;;;;;;;;;;;;;;;20.34;50.00;100685.69;4996963;28;4290;-70
2023/01/14 11:34:18;;;;;;;;;;;;;;;20.34;50.15;100694.31;4998028;28;4177;-72
2023/01/14 11:36:44;;;;;;;;;;;;;;;20.35;50.05;100681.41;4998191;28;4204;-72
2023/01/14 11:39:12;;;;;;;;;;;;;;;20.37;50.20;100684.38;5019214;28;4095;-72
2023/01/14 11:41:39;;;;;;;;;;;;;;;20.35;50.11;100667.00;4999392;28;4091;-72
2023/01/14 11:44:14;;;;;;;;;;;;;;;20.36;50.20;100659.84;5011756;28;4113;-70
2023/01/14 11:46:43;;;;;;;;;;;;;;;20.37;50.23;100658.47;5001231;28;4195;-70
2023/01/14 11:49:12;;;;;;;;;;;;;;;20.38;50.43;100636.22;5017326;28;5153;-71
2023/01/14 11:51:40;;;;;;;;;;;;;;;20.36;50.35;100642.59;5017148;28;3887;-71
2023/01/14 11:54:19;;;;;;;;;;;;;;;20.39;50.25;100637.69;5016947;28;4133;-72
2023/01/14 11:56:45;;;;;;;;;;;;;;;20.39;50.36;100626.19;5019315;28;4196;-71
2023/01/14 11:59:28;;;;;;;;;;;;;;;20.39;50.31;100626.19;5016204;28;4141;-71
2023/01/14 12:01:56;;;;;;;;;;;;;;;20.38;50.26;100616.81;5011869;28;4199;-70
2023/01/14 12:04:24;;;;;;;;;;;;;;;20.38;50.45;100605.31;5016185;28;4055;-70
2023/01/14 12:06:53;;;;;;;;;;;;;;;20.35;50.58;100603.75;4992292;28;4044;-74
2023/01/14 12:09:23;;;;;;;;;;;;;;;20.32;49.94;100596.44;4994526;28;4599;-76
2023/01/14 12:11:55;;;;;;;;;;;;;;;20.34;50.16;100596.53;4992994;28;4196;-78
2023/01/14 12:17:16;;;;;;;;;;;;;;;20.55;49.71;100580.09;5012870;28;4642;-73
2023/01/14 12:19:52;;;;;;;;;;;;;;;20.53;49.96;100565.66;5002873;28;5764;-73
2023/01/14 12:22:18;;;;;;;;;;;;;;;20.66;50.04;100562.63;5014959;28;4263;-75
2023/01/14 12:24:48;;;;;;;;;;;;;;;20.82;49.97;100568.31;5016968;28;4090;-77
2023/01/14 12:27:41;;;;;;;;;;;;;;;20.82;50.11;100551.03;5014024;28;4278;-75
2023/01/14 12:30:03;;;;;;;;;;;;;;;20.88;49.81;100539.75;5004103;28;4508;-80
2023/01/14 12:32:30;;;;;;;;;;;;;;;20.91;49.71;100535.56;5000171;28;4247;-78
2023/01/14 12:34:57;;;;;;;;;;;;;;;20.87;49.21;100526.78;4996554;28;4263;-77
2023/01/14 12:37:24;;;;;;;;;;;;;;;20.92;49.34;100514.00;5016666;28;4305;-74
2023/01/14 12:45:41;;;;;;;;;;;;;;;20.91;49.44;100509.66;5013097;28;4143;-76
2023/01/14 12:45:52;;;;;;;;;;;;;;;20.90;49.45;100493.06;5020008;28;4951;-76
2023/01/14 12:48:18;;;;;;;;;;;;;;;20.98;49.28;100486.84;5023398;28;4186;-75
2023/01/14 12:50:50;;;;;;;;;;;;;;;21.01;49.28;100474.03;5022818;28;4403;-76
2023/01/14 12:53:36;;;;;;;;;;;;;;;21.01;49.08;100468.28;5024443;28;4196;-74
2023/01/14 12:56:03;;;;;;;;;;;;;;;21.03;49.23;100453.97;5024561;28;4253;-76
2023/01/14 12:58:30;;;;;;;;;;;;;;;21.04;49.28;100432.41;5023882;28;4115;-75
2023/01/14 13:00:58;;;;;;;;;;;;;;;21.09;49.46;100419.63;5018820;28;3990;-75
2023/01/14 13:03:25;;;;;;;;;;;;;;;21.12;49.12;100415.44;5022500;28;4933;-78
2023/01/14 13:05:53;;;;;;;;;;;;;;;21.12;49.25;100416.16;5023151;28;4413;-74
2023/01/14 13:08:26;;;;;;;;;;;;;;;21.12;49.32;100409.69;5020705;28;4129;-75
2023/01/14 13:11:13;;;;;;;;;;;;;;;21.13;49.27;100403.25;5020530;28;4115;-77
2023/01/14 13:13:44;;;;;;;;;;;;;;;21.06;49.54;100398.66;5020703;28;4051;-80
2023/01/14 13:16:42;;;;;;;;;;;;;;;21.02;49.59;100415.06;5023842;28;4170;-76
2023/01/14 13:19:24;;;;;;;;;;;;;;;20.99;49.53;100413.50;4996378;28;5556;-82
2023/01/14 13:21:55;;;;;;;;;;;;;;;21.04;49.66;100403.63;5019212;28;3975;-80
2023/01/14 13:24:29;;;;;;;;;;;;;;;21.09;49.77;100393.72;5026005;28;4252;-78
2023/01/14 13:26:56;;;;;;;;;;;;;;;21.04;50.47;100392.84;5023211;28;4310;-81
2023/01/14 13:29:23;;;;;;;;;;;;;;;20.94;50.60;100389.59;5014859;28;4288;-77
2023/01/14 13:31:50;;;;;;;;;;;;;;;20.90;51.27;100381.53;5016429;28;4157;-75